Tripp, South Dakota
Current Conditions -  °F | °C
As of 8:35 AM on Friday 31 Oct 2014 (Local Time) from KYKN Reporting Station
Clear Clear  
Wind Chill: 11°   Ceiling: Unl
Heat Index: 19°   Visibility: 10mi
Dew Point: 16°   Wind: 6mph
Humidity: 86%   Direction: 330°NNW
Pressure: 30.59"   Gusts: NA
Location:  43.23°N, 97.97°W
Report Text: KYKN 311335Z AUTO 33005KT 10SM CLR M07/M09 A3059 RMK AO1
Loading
Personal Weather Stations






























Interactive Weather Map
Tropical Storm Tracking
New forecast layout! Learn more

10-Day Weather Forecast

Advertisements
Track Severe Weather on mobile